< < Back
Terminal Aerodrome Forecast


Current Version              Previous Versions:   1  2  3  4  5  6  7  8  9  

Terminal Aerodrome Forecast

031
FTUS44 KMRX 230520
TAFTYS
TAF
KTYS 230520Z 2306/2406 22004KT P6SM SCT080
     FM231200 02004KT P6SM SCT250
     FM240000 03004KT P6SM SKC=

Latest METAR

451
SAUS80 KWBC 240600 RRC
MTRTYS
METAR KTYS 240553Z 00000KT 10SM CLR 16/11 A3004 RMK AO2 SLP166 T01560111
10228 20128 51004


USA.gov is the U.S. government's official web portal to all federal, state and local government web resources and services.